Main page
METAR-TAF:

METAR-TAF

Airports :

Calgary International Airport

Calgary, Alberta, Canada

latitude: 51-07N, longitude: 114-01W, elevation: 1077 m

Current weather observation

The report was made 1 hour and 12 minutes ago, at 07:00 UTC
Calm wind
Temperature 0°C
Humidity 69%
Pressure 1021 hPa
Visibility: 24.1 km
Clear sky

METAR: CYYC 200700Z 00000KT 15SM SKC 00/M05 A3016 RMK SLP242

Time: 02:12 (08:12 UTC)

Forecast

The report was made 2 hours and 34 minutes ago, at 05:38 UTC
Forecast valid from 20 at 06 UTC to 21 at 06 UTC
Wind 3 kt from variable directions
Visibility: 10 km
Clear sky
From 20 at 0800 UTC
Wind 5 kt from the Southwest
Visibility: 10 km
Clear sky
From 20 at 1800 UTC
Wind 10 kt from the Southwest
Visibility: 10 km
Clear sky
From 21 at 0200 UTC
Wind 3 kt from variable directions
Visibility: 10 km
Clear sky

TAF: CYYC 200538Z 2006/2106 VRB03KT P6SM SKC FM200800 22005KT P6SM SKC FM201800 22010KT P6SM SKC FM210200 VRB03KT P6SM SKC RMK NXT FCST BY 200900Z

Weather observations and forecasts of more than 4000 airports (METAR and TAF reports).

The available stations are represented by yellow and red dots on the map.

Hover mouse over dot to see the name of the station.

Then click to see weather observations and forecasts.

To change the map : click on the green buttons with a black cross to zoom in, on the green button with a dash to zoom out, or on the green arrows for adjacent maps.


METAR-TAF: